This is the latest recevied weather packets stored in our database for station/object AH6GR. If no packets are shown the sender has not sent any weather packets the latest 10 day(s).
| Time | Temp. | Humidity | Pressure | Rain* | Wind** | Luminosity | Snow |
|---|---|---|---|---|---|---|---|
| 1777722626 | 21.11° C | 83% | 1016.9 hPa | 0 mm | - | - | - |
| 1777722307 | 21.11° C | 84% | 1016 hPa | 0 mm | - | - | - |
| 1777722026 | 21.11° C | 84% | 1016.9 hPa | 0 mm | - | - | - |
| 1777721461 | 20.56° C | 84% | 1016.3 hPa | 0 mm | - | - | - |
| 1777721426 | 21.11° C | 84% | 1017.1 hPa | 0 mm | - | - | - |
| 1777720826 | 20.56° C | 86% | 1017.2 hPa | 0 mm | - | - | - |
| 1777720534 | 20° C | 86% | 1016.4 hPa | 0 mm | - | - | - |
| 1777720226 | 20.56° C | 86% | 1017.2 hPa | 0 mm | - | - | - |
| 1777719626 | 20.56° C | 87% | 1017.4 hPa | 0 mm | - | - | - |
| 1777719609 | 20° C | 87% | 1016.6 hPa | 0 mm | - | - | - |
| 1777719026 | 20.56° C | 86% | 1017.7 hPa | 0 mm | - | - | - |
| 1777718753 | 20.56° C | 85% | 1017 hPa | 0 mm | - | - | - |
| 1777718426 | 21.11° C | 83% | 1017.9 hPa | 0 mm | - | - | - |
| 1777717826 | 21.11° C | 84% | 1017.9 hPa | 0 mm | - | - | - |
| 1777717820 | 21.11° C | 84% | 1017.1 hPa | 0 mm | - | - | - |
| 1777717225 | 21.67° C | 83% | 1017.9 hPa | 0 mm | - | - | - |
| 1777716963 | 21.67° C | 83% | 1017.1 hPa | 0 mm | - | - | - |
| 1777716626 | 21.67° C | 83% | 1017.9 hPa | 0 mm | - | - | - |
| 1777716034 | 21.67° C | 83% | 1017.1 hPa | 0 mm | - | - | - |
| 1777716025 | 21.67° C | 83% | 1017.9 hPa | 0 mm | - | - | - |
| 1777715426 | 21.67° C | 83% | 1018.1 hPa | 0 mm | - | - | - |
| 1777715108 | 21.67° C | 82% | 1017.3 hPa | 0 mm | - | - | - |
| 1777714826 | 21.67° C | 82% | 1018.1 hPa | 0 mm | - | - | - |
| 1777714260 | 21.67° C | 81% | 1017.3 hPa | 0 mm | - | - | - |
| 1777714225 | 21.67° C | 81% | 1018.1 hPa | 0 mm | - | - | - |
* Rain latest hour (hover to see other rain measurements)
** Current wind speed in m/s (hover to see current wind gust speed)